Latest Coastal Weather Observations for Portland Harbour

IDS60701

Issued at 3:15 am CST Wednesday 23 July 2014 (issued every 10 minutes, with the page automatically refreshed every 10 minutes)

About coastal observations | Map of coastal stations | Coastal observations for SA | Marine services | Other Formats
Station Details ID: 090192 Name: PORTLAND NTC AWS Lat: -38.34 Lon: 141.61 Height: 0.0 m
Data from the previous 72 hours. | See also: Recent months for locations in South Australia
Date/Time
CST
Temp

°C
Wind Pressure Rain
since 9am
mm
Weather Cloud Vis
km
Sea
Height
m
Swell
Dir
 
Speed
knots
Gust
knots
hPa Trend Height
m
Period
s
Dir
23/03:00am 4.0 SW 3 3 1022.1 - - - - - - - - -
23/02:30am 4.3 SW 3 4 1022.5 - - - - - - - - -
23/02:00am 4.3 SSW 4 5 1022.8 - - - - - - - - -
23/01:30am 4.6 SW 2 3 1022.9 - - - - - - - - -
23/01:00am 4.5 WSW 3 5 1022.9 - - - - - - - - -
23/12:30am 5.0 WSW 2 3 1023.0 - - - - - - - - -
23/12:00am 5.2 SSW 3 4 1023.1 - - - - - - - - -
 
Date/Time
CST
Temp

°C
Wind Pressure Rain
since 9am
mm
Weather Cloud Vis
km
Sea
Height
m
Swell
Dir
 
Speed
knots
Gust
knots
hPa Trend Height
m
Period
s
Dir
22/11:30pm 5.3 SSW 3 3 1023.7 - - - - - - - - -
22/11:00pm 5.9 SW 2 3 1024.0 - - - - - - - - -
22/10:30pm 6.1 SW 3 4 1024.3 - - - - - - - - -
22/10:00pm 6.1 WSW 2 3 1024.3 - - - - - - - - -
22/09:30pm 6.7 SSW 2 4 1024.3 - - - - - - - - -
22/09:00pm 7.0 WSW 2 3 1023.8 - - - - - - - - -
22/08:30pm 6.9 SSW 2 2 1023.6 - - - - - - - - -
22/08:00pm 7.9 SW 2 3 1023.8 - - - - - - - - -
22/07:30pm 9.4 W 2 4 1023.8 - - - - - - - - -
22/07:00pm 12.5 ENE 5 7 1023.8 - - - - - - - - -
22/06:30pm 12.4 E 6 7 1023.8 - - - - - - - - -
22/06:00pm 12.3 E 5 6 1023.7 - - - - - - - - -
22/05:30pm 12.3 E 4 6 1023.6 - - - - - - - - -
22/05:00pm 12.2 E 5 7 1023.4 - - - - - - - - -
22/04:30pm 12.3 E 4 6 1023.4 - - - - - - - - -
22/04:00pm 12.3 E 5 7 1023.5 - - - - - - - - -
22/03:30pm 11.9 E 5 7 1023.4 - - - - - - - - -
22/03:00pm 11.8 E 5 6 1023.6 - - - - - - - - -
22/02:30pm 11.7 E 4 6 1023.5 - - - - - - - - -
22/02:00pm 11.5 E 4 5 1023.6 - - - - - - - - -
22/01:30pm 11.4 ENE 3 4 1023.7 - - - - - - - - -
22/01:00pm 11.1 ENE 3 4 1024.0 - - - - - - - - -
22/12:30pm 11.2 NE 3 4 1024.6 - - - - - - - - -
22/12:00pm 10.6 NNE 3 4 1025.0 - - - - - - - - -
22/11:30am 9.5 NNE 3 4 1025.5 - - - - - - - - -
22/11:00am 8.3 N 4 6 1025.9 - - - - - - - - -
22/10:30am 8.0 NNE 4 6 1026.2 - - - - - - - - -
22/10:00am 7.9 N 4 6 1026.2 - - - - - - - - -
22/09:30am 7.4 NNW 2 4 1026.3 - - - - - - - - -
22/09:00am 6.0 WNW 1 3 1026.2 - - - - - - - - -
22/08:30am 5.4 WNW 2 3 1026.1 - - - - - - - - -
22/08:00am 4.9 W 2 2 1025.8 - - - - - - - - -
22/07:30am 4.3 W 1 2 1025.6 - - - - - - - - -
22/07:00am 4.0 W 2 3 1025.5 - - - - - - - - -
22/06:30am 4.4 WNW 3 4 1025.2 - - - - - - - - -
22/06:00am 4.0 W 4 5 1024.9 - - - - - - - - -
22/05:30am 4.3 WNW 3 4 1024.6 - - - - - - - - -
22/05:00am 4.1 W 3 4 1024.6 - - - - - - - - -
22/04:30am 3.8 W 4 6 1024.5 - - - - - - - - -
22/04:00am 3.7 W 3 4 1024.3 - - - - - - - - -
22/03:30am 4.6 W 3 4 1024.2 - - - - - - - - -
22/03:00am 4.8 W 3 4 1024.2 - - - - - - - - -
22/02:30am 4.8 W 4 5 1024.3 - - - - - - - - -
22/02:00am 5.0 SW 3 4 1024.3 - - - - - - - - -
22/01:30am 5.5 WSW 1 2 1024.3 - - - - - - - - -
22/01:00am 8.2 N 4 6 1024.3 - - - - - - - - -
22/12:30am 5.8 WSW 2 4 1024.5 - - - - - - - - -
22/12:00am 6.5 W 1 2 1024.8 - - - - - - - - -
 
Date/Time
CST
Temp

°C
Wind Pressure Rain
since 9am
mm
Weather Cloud Vis
km
Sea
Height
m
Swell
Dir
 
Speed
knots
Gust
knots
hPa Trend Height
m
Period
s
Dir
21/11:30pm 6.4 W 2 3 1024.9 - - - - - - - - -
21/11:00pm 7.3 W 1 3 1024.8 - - - - - - - - -
21/10:30pm 6.8 SW 2 4 1024.8 - - - - - - - - -
21/10:00pm 7.6 SSW 2 3 1024.7 - - - - - - - - -
21/09:30pm 9.1 W 1 4 1024.7 - - - - - - - - -
21/09:00pm 8.2 W 3 3 1024.8 - - - - - - - - -
21/08:30pm 8.1 W 5 6 1024.8 - - - - - - - - -
21/08:00pm 10.5 NNW 5 7 1024.4 - - - - - - - - -
21/07:30pm 11.1 N 8 9 1024.2 - - - - - - - - -
21/07:00pm 11.8 NNE 9 10 1024.0 - - - - - - - - -
21/06:30pm 11.7 NNE 7 9 1024.0 - - - - - - - - -
21/06:00pm 11.8 NNE 6 8 1023.7 - - - - - - - - -
21/05:30pm 11.8 ENE 3 4 1023.5 - - - - - - - - -
21/05:00pm 11.6 ENE 3 4 1023.5 - - - - - - - - -
21/04:30pm 11.7 E 4 5 1023.3 - - - - - - - - -
21/04:00pm 11.6 NE 2 5 1023.3 - - - - - - - - -
21/03:30pm 11.7 N 4 5 1023.3 - - - - - - - - -
21/03:00pm 11.6 N 5 7 1023.2 - - - - - - - - -
21/02:30pm 11.2 N 7 9 1023.1 - - - - - - - - -
21/02:00pm 11.3 N 6 9 1023.1 - - - - - - - - -
21/01:30pm 11.2 N 6 8 1023.3 - - - - - - - - -
21/01:00pm 11.2 N 6 9 1023.7 - - - - - - - - -
21/12:30pm 10.6 N 8 10 1024.0 - - - - - - - - -
21/12:00pm 10.8 N 9 12 1024.4 - - - - - - - - -
21/11:30am 10.5 N 9 11 1024.7 - - - - - - - - -
21/11:00am 10.3 N 7 9 1025.1 - - - - - - - - -
21/10:30am 9.7 N 3 4 1025.4 - - - - - - - - -
21/10:00am 8.4 NW 1 3 1025.6 - - - - - - - - -
21/09:30am 6.3 W 3 4 1025.6 - - - - - - - - -
21/09:00am 5.5 W 5 7 1025.8 - - - - - - - - -
21/08:30am 5.3 W 2 4 1025.5 - - - - - - - - -
21/08:00am 5.3 SW 1 2 1025.3 - - - - - - - - -
21/07:30am 4.8 W 3 5 1025.4 - - - - - - - - -
21/07:00am 4.9 W 3 4 1025.1 - - - - - - - - -
21/06:30am 4.8 WSW 2 4 1024.8 - - - - - - - - -
21/06:00am 5.5 W 3 5 1024.9 - - - - - - - - -
21/05:30am 4.8 W 2 3 1024.8 - - - - - - - - -
21/05:00am 4.7 SW 3 3 1024.7 - - - - - - - - -
21/04:30am 4.9 WSW 2 3 1024.8 - - - - - - - - -
21/04:00am 5.0 WNW 4 6 1024.8 - - - - - - - - -
21/03:30am 5.1 WSW 3 3 1024.8 - - - - - - - - -
21/03:00am 5.5 WSW 2 4 1024.9 - - - - - - - - -
21/02:30am 6.5 WSW 2 3 1025.1 - - - - - - - - -
21/02:00am 5.9 WSW 2 3 1025.4 - - - - - - - - -
21/01:30am 5.9 WSW 2 3 1025.5 - - - - - - - - -
21/01:00am 6.4 W 3 5 1025.7 - - - - - - - - -
21/12:30am 6.0 WSW 3 4 1025.9 - - - - - - - - -
21/12:00am 6.2 W 2 3 1026.0 - - - - - - - - -
 
Date/Time
CST
Temp

°C
Wind Pressure Rain
since 9am
mm
Weather Cloud Vis
km
Sea
Height
m
Swell
Dir
 
Speed
knots
Gust
knots
hPa Trend Height
m
Period
s
Dir
20/11:30pm 6.4 WSW 2 3 1026.0 - - - - - - - - -
20/11:00pm 6.7 SW 2 3 1026.2 - - - - - - - - -
20/10:30pm 6.9 SW 2 3 1026.2 - - - - - - - - -
20/10:00pm 7.2 SSW 2 3 1026.3 - - - - - - - - -
20/09:30pm 7.5 SW 3 4 1026.5 - - - - - - - - -
20/09:00pm 8.8 WNW 2 4 1026.6 - - - - - - - - -
20/08:30pm 8.7 SW 2 3 1026.6 - - - - - - - - -
20/08:00pm 8.8 WSW 2 3 1026.5 - - - - - - - - -
20/07:30pm 9.5 W 2 4 1026.4 - - - - - - - - -
20/07:00pm 10.7 NNW 4 5 1026.4 - - - - - - - - -
20/06:30pm 11.0 NNW 5 6 1026.3 - - - - - - - - -
20/06:00pm 11.4 N 7 8 1026.2 - - - - - - - - -
20/05:30pm 11.8 N 7 9 1026.2 - - - - - - - - -
20/05:00pm 12.1 NNW 6 7 1026.0 - - - - - - - - -
20/04:30pm 12.4 N 5 7 1025.9 - - - - - - - - -
20/04:00pm 12.5 NNE 4 6 1025.9 - - - - - - - - -
20/03:30pm 12.4 NNE 4 5 1026.0 - - - - - - - - -
20/03:00pm 12.4 NNE 4 6 1026.1 - - - - - - - - -
20/02:30pm 12.3 ENE 1 3 1026.1 - - - - - - - - -
20/02:00pm 12.3 NE 2 3 1026.2 - - - - - - - - -
20/01:30pm 12.2 NNE 3 5 1026.6 - - - - - - - - -
20/01:00pm 12.1 N 6 7 1026.9 - - - - - - - - -
20/12:30pm 11.8 N 7 9 1027.4 - - - - - - - - -
20/12:00pm 11.8 N 8 9 1027.9 - - - - - - - - -
20/11:30am 11.8 N 6 9 1028.3 - - - - - - - - -
20/11:00am 12.3 NNW 5 6 1028.6 - - - - - - - - -
20/10:30am 11.7 NNW 5 8 1028.7 - - - - - - - - -
20/10:00am 11.0 WNW 3 4 1029.0 - - - - - - - - -
20/09:30am 10.6 WSW 4 5 1028.9 - - - - - - - - -
20/09:00am 10.0 W 4 6 1028.9 - - - - - - - - -
20/08:30am 9.2 WNW 4 5 1028.8 - - - - - - - - -
20/08:00am 8.7 WNW 6 8 1028.5 - - - - - - - - -
20/07:30am 7.8 W 7 7 1028.3 - - - - - - - - -
20/07:00am 7.3 WSW 4 6 1028.1 - - - - - - - - -
20/06:30am 7.7 W 3 5 1028.0 - - - - - - - - -
20/06:00am 9.0 NW 3 4 1027.8 - - - - - - - - -
20/05:30am 7.5 WSW 2 3 1027.7 - - - - - - - - -
20/05:00am 8.3 WNW 5 6 1027.7 - - - - - - - - -
20/04:30am 7.3 SSW 3 4 1028.0 - - - - - - - - -
20/04:00am 7.7 W 5 7 1027.9 - - - - - - - - -
20/03:30am 8.1 W 4 6 1027.9 - - - - - - - - -
20/03:00am 8.1 SW 3 5 1027.8 - - - - - - - - -

Other Formats:

Comma delimited format used in spreadsheet applications
http://www.bom.gov.au/fwo/IDS60701/IDS60701.95826.axf

JavaScript Object Notation format (JSON) in row-major order
http://www.bom.gov.au/fwo/IDS60701/IDS60701.95826.json